Terminal Aerodrome Forecast
Issued by NWS Greer, SC

Current Version | Previous Version | Text Only | Print | Product List | Glossary On
Versions: 1 2 3 4 5 6 7 8 9 10 11 12 13 14 15 16 17 18 19 20 21 22 23
000
FTUS42 KGSP 252339
TAFCLT
TAF
KCLT 252339Z 2600/2624 VRB03KT P6SM FEW050 BKN250
     FM260300 00000KT P6SM BKN250
     FM260900 06006KT P6SM SCT015 BKN250
     FM261200 06007KT P6SM SCT015 BKN050
     FM261600 06007KT P6SM BKN025
     FM261800 09006KT P6SM BKN025 PROB30 2619/2623 4SM -TSRA
      OVC012CB=

USA.gov is the U.S. government's official web portal to all federal, state and local government web resources and services.